MOL Celebration — C6WW7 — position and weather

sailwx.info

Track history (hours):
 
Tides and Currents Weather Stations Pressure Air Temp Water Temp Dewpoint Dewpoint Depression Visibility Wind Speed Wind Dir Waves Ship Positions

MOL Celebration

Last reported at 2018-Feb-22 05:57 UTC. Time now 2018-Feb-25 10:16 UTC.
Position N 35°02' E 140°29'.

Length 316 m; draft 12.8 m.

Type: Ship (hazmat cat D). MMSI: 309901000.

Date/timePositionNaut miles runAvg speedWind from/ knotsBaromVisibWave heightAir tempDewpointWater temp
2018-Feb-22 05:57N 35°02' E 140°29'1119.4
2018-Feb-22 05:22N 34°56' E 140°17'719.1
2018-Feb-22 05:00N 34°53' E 140°10'1319.6
2018-Feb-22 04:19N 34°46' E 139°56'719.8
2018-Feb-22 03:58N 34°42' E 139°48'1019.8
2018-Feb-22 03:26N 34°38' E 139°37'919.8
2018-Feb-22 03:00N 34°37' E 139°27'1019.4
2018-Feb-22 02:28N 34°34' E 139°15'919.9
2018-Feb-22 02:00N 34°29' E 139°05'1019.6
2018-Feb-22 01:30N 34°24' E 138°54'1020.2
2018-Feb-22 01:00N 34°20' E 138°43'1020.6
2018-Feb-22 00:30N 34°16' E 138°32'1120.1
2018-Feb-21 23:57N 34°11' E 138°20'1119.6
2018-Feb-21 23:23N 34°07' E 138°08'  
2018-Feb-19 14:15N 24°28' E 119°20'521.2
2018-Feb-19 14:00N 24°25' E 119°16'1121.6
2018-Feb-19 13:30N 24°18' E 119°07'1121.3
2018-Feb-19 13:00N 24°11' E 118°57'1121.3
2018-Feb-19 12:30N 24°06' E 118°47'1020.7
2018-Feb-19 12:00N 23°59' E 118°39'1019.9
2018-Feb-19 11:30N 23°54' E 118°30'1019.9
2018-Feb-19 11:00N 23°47' E 118°22'1019.6
2018-Feb-19 10:30N 23°41' E 118°13'1019.4
2018-Feb-19 10:00N 23°35' E 118°05'919.0
2018-Feb-19 09:30N 23°29' E 117°57'1018.6
2018-Feb-19 08:59N 23°23' E 117°48'918.7
2018-Feb-19 08:30N 23°17' E 117°41'919.0
2018-Feb-19 08:00N 23°10' E 117°35'  
Track history (hours):
 
Tides and Currents Weather Stations Pressure Air Temp Water Temp Dewpoint Dewpoint Depression Visibility Wind Speed Wind Dir Waves Ship Positions

MOL Celebration

Last reported at 2018-Feb-22 05:57 UTC. Time now 2018-Feb-25 10:16 UTC.
Position N 35°02' E 140°29'.

Length 316 m; draft 12.8 m.

Type: Ship (hazmat cat D). MMSI: 309901000.

Date/timePositionNaut miles runAvg speedWind from/ knotsBaromVisibWave heightAir tempDewpointWater temp
2018-Feb-22 05:57N 35°02' E 140°29'1119.4
2018-Feb-22 05:22N 34°56' E 140°17'719.1
2018-Feb-22 05:00N 34°53' E 140°10'1319.6
2018-Feb-22 04:19N 34°46' E 139°56'719.8
2018-Feb-22 03:58N 34°42' E 139°48'1019.8
2018-Feb-22 03:26N 34°38' E 139°37'919.8
2018-Feb-22 03:00N 34°37' E 139°27'1019.4
2018-Feb-22 02:28N 34°34' E 139°15'919.9
2018-Feb-22 02:00N 34°29' E 139°05'1019.6
2018-Feb-22 01:30N 34°24' E 138°54'1020.2
2018-Feb-22 01:00N 34°20' E 138°43'1020.6
2018-Feb-22 00:30N 34°16' E 138°32'1120.1
2018-Feb-21 23:57N 34°11' E 138°20'1119.6
2018-Feb-21 23:23N 34°07' E 138°08'  
2018-Feb-19 14:15N 24°28' E 119°20'521.2
2018-Feb-19 14:00N 24°25' E 119°16'1121.6
2018-Feb-19 13:30N 24°18' E 119°07'1121.3
2018-Feb-19 13:00N 24°11' E 118°57'1121.3
2018-Feb-19 12:30N 24°06' E 118°47'1020.7
2018-Feb-19 12:00N 23°59' E 118°39'1019.9
2018-Feb-19 11:30N 23°54' E 118°30'1019.9
2018-Feb-19 11:00N 23°47' E 118°22'1019.6
2018-Feb-19 10:30N 23°41' E 118°13'1019.4
2018-Feb-19 10:00N 23°35' E 118°05'919.0
2018-Feb-19 09:30N 23°29' E 117°57'1018.6
2018-Feb-19 08:59N 23°23' E 117°48'918.7
2018-Feb-19 08:30N 23°17' E 117°41'919.0
2018-Feb-19 08:00N 23°10' E 117°35'  

Dump ship's entire track history